createdAt,value
2017-10-03T00:00:11.235Z,52.60
2017-10-03T00:02:38.763Z,52.60
2017-10-03T00:05:06.254Z,52.60
2017-10-03T00:07:33.906Z,52.70
2017-10-03T00:10:01.398Z,52.60
2017-10-03T00:12:28.891Z,52.60
2017-10-03T00:14:56.386Z,52.60
2017-10-03T00:17:24.651Z,52.60
2017-10-03T00:19:52.144Z,52.60
2017-10-03T00:22:19.674Z,52.60
2017-10-03T00:24:47.373Z,52.50
2017-10-03T00:27:14.883Z,52.50
2017-10-03T00:29:43.166Z,52.60
2017-10-03T00:32:11.579Z,52.60
2017-10-03T00:34:39.106Z,52.60
2017-10-03T00:37:07.371Z,52.60
2017-10-03T00:39:35.666Z,52.60
2017-10-03T00:42:03.159Z,52.60
2017-10-03T00:44:30.654Z,52.60
2017-10-03T00:46:58.345Z,52.70
2017-10-03T00:49:26.004Z,52.60
2017-10-03T00:51:53.524Z,52.50
2017-10-03T00:54:21.806Z,52.50
2017-10-03T00:56:50.091Z,52.50
2017-10-03T00:59:17.586Z,52.50
2017-10-03T01:01:45.111Z,52.40
2017-10-03T01:04:12.606Z,52.50
2017-10-03T01:06:40.131Z,52.50
2017-10-03T01:09:07.688Z,52.60
2017-10-03T01:11:35.210Z,52.50
2017-10-03T01:14:03.483Z,52.60
2017-10-03T01:16:31.760Z,52.50
2017-10-03T01:18:59.255Z,52.50
2017-10-03T01:21:26.816Z,52.50
2017-10-03T01:23:54.327Z,52.50
2017-10-03T01:26:22.600Z,52.50
2017-10-03T01:28:50.882Z,52.50
2017-10-03T01:31:18.383Z,52.50
2017-10-03T01:33:46.106Z,52.40
2017-10-03T01:36:13.607Z,52.40
2017-10-03T01:38:41.218Z,52.50
2017-10-03T01:41:08.746Z,52.50
2017-10-03T01:43:37.046Z,52.30
2017-10-03T01:46:04.538Z,52.30
2017-10-03T01:48:32.084Z,52.50
2017-10-03T01:50:59.578Z,52.50
2017-10-03T01:53:27.070Z,52.60
2017-10-03T01:55:54.626Z,52.70
2017-10-03T01:58:22.251Z,52.60
2017-10-03T02:00:49.771Z,52.60
2017-10-03T02:03:17.278Z,52.50
2017-10-03T02:05:45.556Z,52.50
2017-10-03T02:08:13.324Z,52.50
2017-10-03T02:10:40.842Z,52.40
2017-10-03T02:13:08.334Z,52.50
2017-10-03T02:15:35.854Z,52.50
2017-10-03T02:18:03.484Z,52.50
2017-10-03T02:20:30.981Z,52.50
2017-10-03T02:22:58.527Z,52.40
2017-10-03T02:25:26.803Z,52.60
2017-10-03T02:27:54.312Z,52.50
2017-10-03T02:30:21.846Z,53.10
2017-10-03T02:32:49.355Z,52.40
2017-10-03T02:35:16.851Z,53.10
2017-10-03T02:37:44.372Z,52.50
2017-10-03T02:40:11.873Z,52.50
2017-10-03T02:42:39.452Z,52.50
2017-10-03T02:45:06.991Z,52.40
2017-10-03T02:47:34.516Z,52.40
2017-10-03T02:50:02.924Z,52.40
2017-10-03T02:52:30.419Z,52.40
2017-10-03T02:54:58.037Z,52.40
2017-10-03T02:57:25.679Z,52.50
2017-10-03T02:59:53.175Z,52.50
2017-10-03T03:02:20.683Z,52.50
2017-10-03T03:04:48.321Z,52.40
2017-10-03T03:07:16.726Z,52.50
2017-10-03T03:09:44.386Z,52.50
2017-10-03T03:12:11.882Z,52.40
2017-10-03T03:14:39.406Z,52.50
2017-10-03T03:17:06.951Z,52.40
2017-10-03T03:19:34.457Z,52.50
2017-10-03T03:22:01.950Z,52.50
2017-10-03T03:24:29.717Z,52.50
2017-10-03T03:26:57.391Z,52.50
2017-10-03T03:29:24.894Z,52.50
2017-10-03T03:31:53.170Z,52.40
2017-10-03T03:34:21.442Z,52.30
2017-10-03T03:36:48.979Z,52.30
2017-10-03T03:39:16.472Z,52.40
2017-10-03T03:41:44.146Z,52.40
2017-10-03T03:44:11.659Z,52.40
2017-10-03T03:46:39.383Z,52.50
2017-10-03T03:49:06.946Z,52.40
2017-10-03T03:51:34.604Z,52.40
2017-10-03T03:54:02.116Z,52.40
2017-10-03T03:56:30.514Z,52.40
2017-10-03T03:58:58.236Z,52.40
2017-10-03T04:01:25.735Z,52.40
2017-10-03T04:03:53.254Z,52.90
2017-10-03T04:06:20.974Z,52.50
2017-10-03T04:08:48.523Z,52.50
2017-10-03T04:11:16.037Z,52.50
2017-10-03T04:13:43.724Z,52.40
2017-10-03T04:16:11.225Z,52.40
2017-10-03T04:18:38.751Z,52.50
2017-10-03T04:21:06.251Z,52.30
2017-10-03T04:23:33.770Z,52.40
2017-10-03T04:26:01.406Z,52.50
2017-10-03T04:28:28.935Z,52.50
2017-10-03T04:30:57.206Z,52.60
2017-10-03T04:33:25.509Z,52.70
2017-10-03T04:35:53.075Z,52.70
2017-10-03T04:38:20.707Z,52.60
2017-10-03T04:40:48.380Z,52.60
2017-10-03T04:43:15.894Z,52.60
2017-10-03T04:45:43.399Z,52.60
2017-10-03T04:48:10.904Z,52.60
2017-10-03T04:50:38.401Z,52.50
2017-10-03T04:53:05.899Z,53.10
2017-10-03T04:55:33.407Z,52.60
2017-10-03T04:58:00.909Z,52.60
2017-10-03T05:00:28.399Z,52.60
2017-10-03T05:02:56.063Z,52.60
2017-10-03T05:05:23.725Z,52.50
2017-10-03T05:07:51.247Z,52.50
2017-10-03T05:10:18.752Z,52.60
2017-10-03T05:12:46.307Z,52.60
2017-10-03T05:15:13.954Z,52.60
2017-10-03T05:17:41.493Z,52.60
2017-10-03T05:20:09.755Z,52.60
2017-10-03T05:22:38.165Z,52.60
2017-10-03T05:25:05.662Z,52.70
2017-10-03T05:27:33.160Z,52.60
2017-10-03T05:30:00.666Z,52.70
2017-10-03T05:32:28.176Z,52.50
2017-10-03T05:34:55.679Z,53.90
2017-10-03T05:37:23.166Z,56.70
2017-10-03T05:39:51.531Z,56.40
2017-10-03T05:42:20.043Z,56.00
2017-10-03T05:44:47.542Z,56.00
2017-10-03T05:47:15.042Z,55.30
2017-10-03T05:49:42.637Z,55.20
2017-10-03T05:52:10.134Z,55.20
2017-10-03T05:54:37.724Z,55.00
2017-10-03T05:57:05.226Z,55.00
2017-10-03T05:59:32.742Z,55.00
2017-10-03T06:02:00.239Z,55.00
2017-10-03T06:04:27.782Z,54.80
2017-10-03T06:06:55.390Z,55.20
2017-10-03T06:09:23.053Z,54.80
2017-10-03T06:11:50.587Z,54.80
2017-10-03T06:14:18.984Z,54.70
2017-10-03T06:16:46.483Z,54.70
2017-10-03T06:19:13.999Z,54.80
2017-10-03T06:21:41.551Z,54.40
2017-10-03T06:24:09.062Z,54.60
2017-10-03T06:26:36.662Z,54.20
2017-10-03T06:29:04.322Z,53.30
2017-10-03T06:31:31.935Z,53.20
2017-10-03T06:33:59.453Z,53.30
2017-10-03T06:36:26.951Z,53.30
2017-10-03T06:38:54.476Z,53.30
2017-10-03T06:41:22.207Z,53.10
2017-10-03T06:43:49.866Z,53.10
2017-10-03T06:46:17.411Z,53.60
2017-10-03T06:48:45.711Z,54.50
2017-10-03T06:51:13.267Z,54.50
2017-10-03T06:53:40.786Z,55.20
2017-10-03T06:56:08.310Z,56.50
2017-10-03T06:58:35.810Z,55.40
2017-10-03T07:01:04.077Z,55.80
2017-10-03T07:03:32.363Z,56.10
2017-10-03T07:05:59.955Z,56.10
2017-10-03T07:08:27.473Z,55.60
2017-10-03T07:10:54.981Z,56.40
2017-10-03T07:13:22.502Z,57.10
2017-10-03T07:15:50.024Z,56.50
2017-10-03T07:18:18.287Z,57.80
2017-10-03T07:20:46.691Z,57.70
2017-10-03T07:23:14.203Z,57.70
2017-10-03T07:25:41.807Z,56.50
2017-10-03T07:28:09.306Z,57.20
2017-10-03T07:30:36.915Z,56.30
2017-10-03T07:33:04.574Z,55.10
2017-10-03T07:35:32.065Z,55.20
2017-10-03T07:38:03.277Z,55.10
2017-10-03T07:40:31.116Z,54.80
2017-10-03T07:42:59.391Z,54.90
2017-10-03T07:45:27.666Z,54.90
2017-10-03T07:47:57.594Z,54.80
2017-10-03T07:50:25.130Z,54.70
2017-10-03T07:52:53.028Z,54.60
2017-10-03T07:55:20.566Z,54.20
2017-10-03T07:57:48.087Z,55.10
2017-10-03T08:00:15.594Z,58.60
2017-10-03T08:02:43.253Z,59.80
2017-10-03T08:05:11.527Z,59.90
2017-10-03T08:07:39.043Z,61.90
2017-10-03T08:10:07.318Z,61.50
2017-10-03T08:12:35.719Z,63.50
2017-10-03T08:15:03.596Z,63.50
2017-10-03T08:17:31.663Z,63.40
2017-10-03T08:19:59.739Z,64.10
2017-10-03T08:22:28.414Z,64.50
2017-10-03T08:24:56.284Z,63.80
2017-10-03T08:27:24.665Z,62.30
2017-10-03T08:29:52.539Z,62.20
2017-10-03T08:32:20.064Z,62.50
2017-10-03T08:34:47.718Z,64.50
2017-10-03T08:37:15.318Z,62.80
2017-10-03T08:39:43.034Z,64.60
2017-10-03T08:42:10.647Z,63.50
2017-10-03T08:44:38.160Z,63.20
2017-10-03T08:47:05.667Z,63.50
2017-10-03T08:49:33.957Z,64.70
2017-10-03T08:52:02.368Z,65.20
2017-10-03T08:54:30.007Z,65.00
2017-10-03T08:56:57.668Z,61.70
2017-10-03T08:59:25.187Z,57.20
2017-10-03T09:01:53.446Z,58.30
2017-10-03T09:04:20.966Z,58.20
2017-10-03T09:06:48.458Z,54.70
2017-10-03T09:09:16.161Z,54.30
2017-10-03T09:11:43.650Z,54.40
2017-10-03T09:14:11.285Z,56.60
2017-10-03T09:16:38.782Z,63.90
2017-10-03T09:19:06.275Z,62.60
2017-10-03T09:21:34.662Z,64.90
2017-10-03T09:24:02.154Z,64.80
2017-10-03T09:26:29.663Z,65.40
2017-10-03T09:28:57.255Z,65.90
2017-10-03T09:31:24.848Z,65.50
2017-10-03T09:33:52.550Z,65.60
2017-10-03T09:36:20.210Z,65.60
2017-10-03T09:38:47.710Z,66.20
2017-10-03T09:41:15.334Z,66.50
2017-10-03T09:43:42.831Z,67.10
2017-10-03T09:46:10.435Z,66.40
2017-10-03T09:48:38.086Z,66.30
2017-10-03T09:51:05.579Z,66.40
2017-10-03T09:53:33.202Z,66.40
2017-10-03T09:56:00.714Z,66.60
2017-10-03T09:58:28.314Z,66.80
2017-10-03T10:00:55.975Z,66.60
2017-10-03T10:03:23.471Z,66.90
2017-10-03T10:05:51.086Z,67.10
2017-10-03T10:08:18.582Z,66.90
2017-10-03T10:10:46.080Z,66.70
2017-10-03T10:13:14.351Z,65.70
2017-10-03T10:15:42.802Z,66.90
2017-10-03T10:18:10.290Z,66.80
2017-10-03T10:20:38.676Z,67.30
2017-10-03T10:23:06.244Z,67.30
2017-10-03T10:25:33.734Z,67.30
2017-10-03T10:28:01.234Z,67.50
2017-10-03T10:30:28.902Z,67.30
2017-10-03T10:32:56.390Z,67.50
2017-10-03T10:35:24.007Z,67.80
2017-10-03T10:37:53.191Z,67.60
2017-10-03T10:40:21.457Z,67.30
2017-10-03T10:42:49.718Z,67.20
2017-10-03T10:45:18.040Z,67.30
2017-10-03T10:47:45.539Z,67.30
2017-10-03T10:50:13.063Z,67.30
2017-10-03T10:52:40.558Z,67.00
2017-10-03T10:55:08.848Z,67.00
2017-10-03T10:57:37.286Z,67.50
2017-10-03T11:00:04.798Z,67.50
2017-10-03T11:02:32.296Z,67.90
2017-10-03T11:05:00.133Z,67.60
2017-10-03T11:07:27.635Z,67.50
2017-10-03T11:09:55.198Z,67.10
2017-10-03T11:12:23.463Z,68.10
2017-10-03T11:14:50.988Z,68.00
2017-10-03T11:17:18.719Z,67.80
2017-10-03T11:19:46.211Z,67.50
2017-10-03T11:22:13.818Z,67.80
2017-10-03T11:24:43.757Z,67.40
2017-10-03T11:27:11.251Z,67.50
2017-10-03T11:29:38.757Z,66.60
2017-10-03T11:32:06.262Z,66.90
2017-10-03T11:34:33.758Z,67.80
2017-10-03T11:37:01.262Z,67.10
2017-10-03T11:39:29.247Z,67.30
2017-10-03T11:41:56.753Z,68.00
2017-10-03T11:44:24.408Z,67.10
2017-10-03T11:46:51.899Z,67.40
2017-10-03T11:49:19.415Z,67.40
2017-10-03T11:51:46.986Z,67.30
2017-10-03T11:54:14.490Z,66.70
2017-10-03T11:56:42.074Z,65.00
2017-10-03T11:59:09.575Z,64.90
2017-10-03T12:01:37.070Z,66.90
2017-10-03T12:04:05.458Z,65.90
2017-10-03T12:06:32.946Z,65.90
2017-10-03T12:09:00.589Z,66.40
2017-10-03T12:11:28.091Z,66.70
2017-10-03T12:13:56.504Z,67.10
2017-10-03T12:16:24.002Z,67.00
2017-10-03T12:18:51.495Z,67.00
2017-10-03T12:21:19.791Z,66.50
2017-10-03T12:23:47.395Z,66.40
2017-10-03T12:26:15.007Z,67.30
2017-10-03T12:28:42.667Z,66.70
2017-10-03T12:31:10.164Z,67.40
2017-10-03T12:33:37.779Z,67.30
2017-10-03T12:36:05.491Z,67.70
2017-10-03T12:38:33.929Z,66.40
2017-10-03T12:41:01.427Z,66.80
2017-10-03T12:43:29.846Z,67.00
2017-10-03T12:45:57.362Z,67.00
2017-10-03T12:48:25.658Z,66.40
2017-10-03T12:50:53.927Z,64.70
2017-10-03T12:53:22.753Z,64.90
2017-10-03T12:55:50.244Z,64.80
2017-10-03T12:58:17.842Z,65.80
2017-10-03T13:00:45.342Z,66.30
2017-10-03T13:03:12.970Z,66.00
2017-10-03T13:05:40.471Z,64.40
2017-10-03T13:08:07.962Z,66.10
2017-10-03T13:10:35.527Z,66.20
2017-10-03T13:13:03.204Z,65.70
2017-10-03T13:15:30.751Z,66.60
2017-10-03T13:17:58.258Z,66.50
2017-10-03T13:20:25.783Z,66.40
2017-10-03T13:22:53.281Z,66.10
2017-10-03T13:25:21.554Z,65.70
2017-10-03T13:27:49.830Z,65.90
2017-10-03T13:30:18.107Z,66.00
2017-10-03T13:32:46.494Z,65.90
2017-10-03T13:35:14.163Z,65.80
2017-10-03T13:37:41.659Z,65.50
2017-10-03T13:40:09.152Z,63.70
2017-10-03T13:42:37.418Z,66.00
2017-10-03T13:45:05.687Z,66.00
2017-10-03T13:47:33.963Z,66.20
2017-10-03T13:50:02.230Z,66.00
2017-10-03T13:52:29.743Z,66.00
2017-10-03T13:54:57.251Z,65.80
2017-10-03T13:57:24.787Z,65.10
2017-10-03T13:59:52.304Z,65.40
2017-10-03T14:02:19.802Z,65.40
2017-10-03T14:04:47.304Z,65.60
2017-10-03T14:07:14.812Z,65.10
2017-10-03T14:09:43.089Z,65.60
2017-10-03T14:12:11.366Z,65.70
2017-10-03T14:14:39.795Z,65.70
2017-10-03T14:17:07.306Z,65.70
2017-10-03T14:19:35.568Z,65.40
2017-10-03T14:22:03.935Z,65.40
2017-10-03T14:24:31.462Z,65.40
2017-10-03T14:26:59.087Z,65.30
2017-10-03T14:29:26.708Z,65.60
2017-10-03T14:31:54.220Z,65.30
2017-10-03T14:34:21.855Z,63.90
2017-10-03T14:36:49.358Z,63.50
2017-10-03T14:39:16.851Z,64.60
2017-10-03T14:41:45.112Z,65.10
2017-10-03T14:44:13.374Z,64.90
2017-10-03T14:46:41.632Z,65.00
2017-10-03T14:49:09.126Z,65.00
2017-10-03T14:51:37.495Z,65.00
2017-10-03T14:54:05.171Z,64.90
2017-10-03T14:56:32.838Z,65.00
2017-10-03T14:59:00.494Z,64.40
2017-10-03T15:01:28.167Z,62.10
2017-10-03T15:03:55.842Z,63.70
2017-10-03T15:06:23.335Z,64.10
2017-10-03T15:08:50.834Z,64.50
2017-10-03T15:11:18.427Z,64.00
2017-10-03T15:13:45.919Z,64.50
2017-10-03T15:16:14.302Z,63.40
2017-10-03T15:18:41.962Z,63.40
2017-10-03T15:21:09.459Z,64.50
2017-10-03T15:23:37.082Z,62.90
2017-10-03T15:26:04.752Z,62.90
2017-10-03T15:28:32.246Z,63.10
2017-10-03T15:30:59.846Z,63.50
2017-10-03T15:33:27.463Z,64.90
2017-10-03T15:35:54.958Z,63.90
2017-10-03T15:38:22.620Z,64.00
2017-10-03T15:40:50.897Z,62.10
2017-10-03T15:43:18.423Z,62.10
2017-10-03T15:45:45.921Z,61.80
2017-10-03T15:48:13.550Z,62.10
2017-10-03T15:50:41.818Z,62.10
2017-10-03T15:53:10.213Z,62.50
2017-10-03T15:55:37.727Z,62.50
2017-10-03T15:58:05.226Z,63.90
2017-10-03T16:00:32.778Z,63.60
2017-10-03T16:03:00.275Z,63.50
2017-10-03T16:05:27.788Z,61.90
2017-10-03T16:07:55.310Z,62.80
2017-10-03T16:10:22.826Z,64.20
2017-10-03T16:12:50.335Z,64.00
2017-10-03T16:15:18.744Z,59.30
2017-10-03T16:17:46.410Z,59.30
2017-10-03T16:20:14.050Z,64.20
2017-10-03T16:22:41.550Z,63.40
2017-10-03T16:25:09.199Z,64.00
2017-10-03T16:27:36.819Z,63.50
2017-10-03T16:30:04.475Z,63.20
2017-10-03T16:32:32.001Z,63.50
2017-10-03T16:35:00.309Z,63.20
2017-10-03T16:37:27.907Z,63.20
2017-10-03T16:39:55.435Z,62.30
2017-10-03T16:42:22.991Z,63.50
2017-10-03T16:44:50.487Z,63.40
2017-10-03T16:47:18.000Z,62.90
2017-10-03T16:49:45.552Z,63.80
2017-10-03T16:52:13.746Z,64.00
2017-10-03T16:54:41.267Z,63.80
2017-10-03T16:57:08.928Z,63.60
2017-10-03T16:59:36.589Z,62.10
2017-10-03T17:02:04.086Z,63.60
2017-10-03T17:04:31.903Z,63.00
2017-10-03T17:06:59.568Z,62.60
2017-10-03T17:09:27.223Z,62.30
2017-10-03T17:11:54.738Z,62.30
2017-10-03T17:14:23.031Z,62.20
2017-10-03T17:16:51.427Z,63.10
2017-10-03T17:19:19.030Z,63.00
2017-10-03T17:21:46.534Z,62.20
2017-10-03T17:24:14.023Z,62.80
2017-10-03T17:26:41.537Z,63.20
2017-10-03T17:29:09.923Z,62.00
2017-10-03T17:31:37.578Z,62.00
2017-10-03T17:34:05.243Z,61.90
2017-10-03T17:36:32.902Z,61.70
2017-10-03T17:39:00.559Z,62.40
2017-10-03T17:41:28.751Z,61.50
2017-10-03T17:43:56.502Z,62.70
2017-10-03T17:46:24.184Z,62.50
2017-10-03T17:48:51.687Z,62.60
2017-10-03T17:51:20.098Z,62.70
2017-10-03T17:53:47.594Z,62.60
2017-10-03T17:56:15.110Z,62.60
2017-10-03T17:58:42.638Z,62.60
2017-10-03T18:01:10.151Z,62.80
2017-10-03T18:03:37.771Z,62.70
2017-10-03T18:06:05.423Z,62.60
2017-10-03T18:08:33.157Z,62.80
2017-10-03T18:11:01.434Z,58.50
2017-10-03T18:13:29.762Z,59.60
2017-10-03T18:15:57.299Z,59.60
2017-10-03T18:18:24.938Z,61.60
2017-10-03T18:20:52.457Z,61.50
2017-10-03T18:23:20.750Z,61.70
2017-10-03T18:25:49.153Z,62.10
2017-10-03T18:28:16.658Z,62.00
2017-10-03T18:30:44.164Z,62.00
2017-10-03T18:33:11.714Z,62.20
2017-10-03T18:35:39.400Z,61.50
2017-10-03T18:38:07.652Z,61.60
2017-10-03T18:40:36.607Z,62.00
2017-10-03T18:43:06.098Z,62.20
2017-10-03T18:45:34.402Z,61.70
2017-10-03T18:48:02.029Z,61.70
2017-10-03T18:50:29.627Z,61.20
2017-10-03T18:52:57.171Z,62.10
2017-10-03T18:55:25.450Z,62.40
2017-10-03T18:57:53.006Z,62.30
2017-10-03T19:00:20.577Z,62.40
2017-10-03T19:02:48.126Z,62.10
2017-10-03T19:05:15.622Z,61.90
2017-10-03T19:07:43.123Z,61.90
2017-10-03T19:10:10.715Z,62.40
2017-10-03T19:12:38.376Z,63.30
2017-10-03T19:15:05.942Z,62.90
2017-10-03T19:17:33.468Z,62.60
2017-10-03T19:20:01.017Z,62.50
2017-10-03T19:22:28.619Z,62.40
2017-10-03T19:24:56.143Z,62.40
2017-10-03T19:27:23.934Z,62.40
2017-10-03T19:29:51.457Z,63.10
2017-10-03T19:32:19.008Z,62.40
2017-10-03T19:34:46.518Z,62.30
2017-10-03T19:37:14.043Z,62.40
2017-10-03T19:39:41.562Z,62.60
2017-10-03T19:42:09.058Z,62.50
2017-10-03T19:44:36.579Z,62.70
2017-10-03T19:47:04.135Z,62.40
2017-10-03T19:49:31.674Z,62.90
2017-10-03T19:52:00.023Z,63.30
2017-10-03T19:54:27.551Z,63.20
2017-10-03T19:56:55.106Z,63.00
2017-10-03T19:59:22.858Z,62.60
2017-10-03T20:01:50.558Z,62.60
2017-10-03T20:04:18.978Z,62.70
2017-10-03T20:06:46.475Z,62.70
2017-10-03T20:09:14.051Z,63.10
2017-10-03T20:11:43.191Z,62.80
2017-10-03T20:14:10.702Z,62.90
2017-10-03T20:16:38.976Z,62.70
2017-10-03T20:19:07.382Z,63.00
2017-10-03T20:21:35.097Z,63.00
2017-10-03T20:24:02.703Z,63.00
2017-10-03T20:26:30.419Z,63.10
2017-10-03T20:28:57.921Z,63.00
2017-10-03T20:31:25.515Z,62.90
2017-10-03T20:33:53.148Z,62.80
2017-10-03T20:36:20.670Z,62.80
2017-10-03T20:38:48.933Z,62.80
2017-10-03T20:41:16.455Z,62.80
2017-10-03T20:43:43.951Z,62.80
2017-10-03T20:46:11.631Z,62.80
2017-10-03T20:48:39.126Z,62.70
2017-10-03T20:51:06.626Z,62.60
2017-10-03T20:53:34.910Z,62.60
2017-10-03T20:56:02.406Z,62.60
2017-10-03T20:58:29.966Z,62.40
2017-10-03T21:00:57.458Z,62.50
2017-10-03T21:03:25.756Z,62.60
2017-10-03T21:05:53.328Z,62.60
2017-10-03T21:08:20.894Z,62.50
2017-10-03T21:10:48.447Z,62.50
2017-10-03T21:13:15.963Z,62.30
2017-10-03T21:15:44.226Z,62.50
2017-10-03T21:18:12.506Z,62.60
2017-10-03T21:20:40.027Z,62.50
2017-10-03T21:23:07.583Z,62.40
2017-10-03T21:25:35.195Z,62.40
2017-10-03T21:28:02.855Z,62.40
2017-10-03T21:30:30.364Z,62.40
2017-10-03T21:32:58.798Z,62.20
2017-10-03T21:35:26.458Z,62.20
2017-10-03T21:37:53.991Z,62.20
2017-10-03T21:40:21.491Z,62.20
2017-10-03T21:43:00.818Z,62.10
2017-10-03T21:45:28.333Z,62.10
2017-10-03T21:47:55.863Z,62.20
2017-10-03T21:50:24.154Z,62.00
2017-10-03T21:52:52.447Z,61.90
2017-10-03T21:55:20.008Z,61.90
2017-10-03T21:57:47.503Z,62.00
2017-10-03T22:00:15.127Z,61.90
2017-10-03T22:02:42.626Z,61.90
2017-10-03T22:05:10.118Z,61.90
2017-10-03T22:07:37.703Z,62.00
2017-10-03T22:10:05.195Z,61.80
2017-10-03T22:12:33.470Z,61.70
2017-10-03T22:15:01.886Z,61.80
2017-10-03T22:17:29.402Z,61.80
2017-10-03T22:19:57.843Z,61.60
2017-10-03T22:22:25.490Z,61.50
2017-10-03T22:24:53.013Z,61.60
2017-10-03T22:27:21.298Z,61.40
2017-10-03T22:29:48.859Z,61.40
2017-10-03T22:32:16.373Z,61.40
2017-10-03T22:34:43.907Z,61.40
2017-10-03T22:37:11.469Z,61.50
2017-10-03T22:39:38.999Z,61.20
2017-10-03T22:42:06.527Z,61.20
2017-10-03T22:44:34.223Z,61.30
2017-10-03T22:47:01.719Z,61.30
2017-10-03T22:49:30.011Z,61.90
2017-10-03T22:52:04.061Z,61.30
2017-10-03T22:54:31.627Z,61.20
2017-10-03T22:56:59.127Z,61.10
2017-10-03T22:59:27.528Z,61.10
2017-10-03T23:01:55.197Z,61.10
2017-10-03T23:04:22.842Z,61.00
2017-10-03T23:06:50.347Z,61.20
2017-10-03T23:09:17.955Z,61.00
2017-10-03T23:11:45.463Z,61.00
2017-10-03T23:14:13.068Z,60.80
2017-10-03T23:16:40.929Z,61.50
2017-10-03T23:19:08.439Z,60.80
2017-10-03T23:21:35.938Z,60.80
2017-10-03T23:24:03.495Z,60.80
2017-10-03T23:26:31.112Z,60.80
2017-10-03T23:28:58.806Z,60.90
2017-10-03T23:31:26.467Z,60.80
2017-10-03T23:33:54.122Z,60.70
2017-10-03T23:36:21.619Z,60.60
2017-10-03T23:38:49.138Z,60.40
2017-10-03T23:41:16.638Z,60.70
2017-10-03T23:43:44.354Z,60.70
2017-10-03T23:46:11.855Z,60.60
2017-10-03T23:48:39.367Z,60.60
2017-10-03T23:51:06.866Z,60.50
2017-10-03T23:53:34.582Z,60.60
2017-10-03T23:56:02.091Z,60.60
2017-10-03T23:58:29.615Z,60.50
